sensor_id;sensor_type;location;lat;lon;timestamp;pressure;altitude;pressure_sealevel;temperature;humidity
46534;BME280;32260;52.008;4.752;2022-07-23T00:00:40;102036.09;;;19.50;57.54
46534;BME280;32260;52.008;4.752;2022-07-23T00:03:06;102032.84;;;19.42;58.22
46534;BME280;32260;52.008;4.752;2022-07-23T00:05:33;102033.72;;;19.42;58.14
46534;BME280;32260;52.008;4.752;2022-07-23T00:07:59;102035.56;;;19.40;58.27
46534;BME280;32260;52.008;4.752;2022-07-23T00:10:25;102040.19;;;19.36;58.32
46534;BME280;32260;52.008;4.752;2022-07-23T00:12:51;102031.25;;;19.36;58.30
46534;BME280;32260;52.008;4.752;2022-07-23T00:15:18;102036.81;;;19.31;59.08
46534;BME280;32260;52.008;4.752;2022-07-23T00:17:44;102034.31;;;19.27;59.36
46534;BME280;32260;52.008;4.752;2022-07-23T00:20:11;102029.94;;;19.24;59.46
46534;BME280;32260;52.008;4.752;2022-07-23T00:22:44;102026.34;;;19.23;58.99
46534;BME280;32260;52.008;4.752;2022-07-23T00:25:10;102020.16;;;19.21;59.18
46534;BME280;32260;52.008;4.752;2022-07-23T00:27:37;102026.47;;;19.20;59.33
46534;BME280;32260;52.008;4.752;2022-07-23T00:30:04;102014.91;;;19.18;58.77
46534;BME280;32260;52.008;4.752;2022-07-23T00:32:30;102009.69;;;19.14;58.99
46534;BME280;32260;52.008;4.752;2022-07-23T00:34:56;102006.16;;;19.13;59.58
46534;BME280;32260;52.008;4.752;2022-07-23T00:37:22;102011.53;;;19.13;59.36
46534;BME280;32260;52.008;4.752;2022-07-23T00:39:48;102008.91;;;19.12;59.73
46534;BME280;32260;52.008;4.752;2022-07-23T00:42:14;101998.25;;;19.08;59.56
46534;BME280;32260;52.008;4.752;2022-07-23T00:44:40;101995.69;;;19.05;59.73
46534;BME280;32260;52.008;4.752;2022-07-23T00:47:06;101994.81;;;19.05;59.34
46534;BME280;32260;52.008;4.752;2022-07-23T00:49:33;102002.06;;;19.03;59.52
46534;BME280;32260;52.008;4.752;2022-07-23T00:52:01;101988.66;;;19.01;59.33
46534;BME280;32260;52.008;4.752;2022-07-23T00:54:28;101991.47;;;18.98;59.50
46534;BME280;32260;52.008;4.752;2022-07-23T00:56:54;101987.97;;;18.96;60.00
46534;BME280;32260;52.008;4.752;2022-07-23T00:59:21;101987.97;;;18.96;60.04
46534;BME280;32260;52.008;4.752;2022-07-23T01:01:47;101980.97;;;18.92;59.91
46534;BME280;32260;52.008;4.752;2022-07-23T01:04:15;101987.25;;;18.91;60.27
46534;BME280;32260;52.008;4.752;2022-07-23T01:06:41;101987.34;;;18.88;59.35
46534;BME280;32260;52.008;4.752;2022-07-23T01:09:08;101985.81;;;18.81;60.30
46534;BME280;32260;52.008;4.752;2022-07-23T01:11:36;101980.50;;;18.79;59.84
46534;BME280;32260;52.008;4.752;2022-07-23T01:14:12;101981.25;;;18.83;60.20
46534;BME280;32260;52.008;4.752;2022-07-23T01:16:40;101984.13;;;18.78;59.86
46534;BME280;32260;52.008;4.752;2022-07-23T01:19:06;101981.59;;;18.73;60.36
46534;BME280;32260;52.008;4.752;2022-07-23T01:21:38;101986.09;;;18.73;60.72
46534;BME280;32260;52.008;4.752;2022-07-23T01:24:05;101988.78;;;18.73;59.85
46534;BME280;32260;52.008;4.752;2022-07-23T01:26:31;101975.41;;;18.71;59.97
46534;BME280;32260;52.008;4.752;2022-07-23T01:28:57;101964.78;;;18.68;60.22
46534;BME280;32260;52.008;4.752;2022-07-23T01:31:24;101977.50;;;18.63;60.58
46534;BME280;32260;52.008;4.752;2022-07-23T01:33:50;101974.91;;;18.60;60.10
46534;BME280;32260;52.008;4.752;2022-07-23T01:36:16;101979.47;;;18.58;60.58
46534;BME280;32260;52.008;4.752;2022-07-23T01:38:42;101987.63;;;18.55;60.80
46534;BME280;32260;52.008;4.752;2022-07-23T01:41:09;101992.13;;;18.54;60.91
46534;BME280;32260;52.008;4.752;2022-07-23T01:43:35;101995.81;;;18.50;61.03
46534;BME280;32260;52.008;4.752;2022-07-23T01:46:01;101994.03;;;18.51;60.67
46534;BME280;32260;52.008;4.752;2022-07-23T01:48:27;101987.84;;;18.49;60.66
46534;BME280;32260;52.008;4.752;2022-07-23T01:50:53;101993.19;;;18.49;60.71
46534;BME280;32260;52.008;4.752;2022-07-23T01:53:19;101994.09;;;18.49;60.91
46534;BME280;32260;52.008;4.752;2022-07-23T01:55:46;101992.34;;;18.48;60.92
46534;BME280;32260;52.008;4.752;2022-07-23T01:58:12;102000.38;;;18.48;60.82
46534;BME280;32260;52.008;4.752;2022-07-23T02:00:38;101993.28;;;18.47;60.53
46534;BME280;32260;52.008;4.752;2022-07-23T02:03:04;101997.75;;;18.47;61.29
46534;BME280;32260;52.008;4.752;2022-07-23T02:05:31;102000.41;;;18.47;61.29
46534;BME280;32260;52.008;4.752;2022-07-23T02:07:59;101996.94;;;18.45;61.43
46534;BME280;32260;52.008;4.752;2022-07-23T02:10:26;101993.47;;;18.41;61.02
46534;BME280;32260;52.008;4.752;2022-07-23T02:12:53;101991.78;;;18.38;60.49
46534;BME280;32260;52.008;4.752;2022-07-23T02:15:19;101987.41;;;18.36;61.21
46534;BME280;32260;52.008;4.752;2022-07-23T02:17:46;101990.13;;;18.34;61.02
46534;BME280;32260;52.008;4.752;2022-07-23T02:20:12;101983.94;;;18.32;61.09
46534;BME280;32260;52.008;4.752;2022-07-23T02:22:39;101992.78;;;18.34;61.34
46534;BME280;32260;52.008;4.752;2022-07-23T02:25:06;101990.13;;;18.34;61.34
46534;BME280;32260;52.008;4.752;2022-07-23T02:27:33;101990.13;;;18.34;61.05
46534;BME280;32260;52.008;4.752;2022-07-23T02:30:00;101983.03;;;18.33;61.13
46534;BME280;32260;52.008;4.752;2022-07-23T02:32:27;101983.03;;;18.33;61.01
46534;BME280;32260;52.008;4.752;2022-07-23T02:34:53;101978.50;;;18.34;61.22
46534;BME280;32260;52.008;4.752;2022-07-23T02:37:19;101983.94;;;18.32;61.42
46534;BME280;32260;52.008;4.752;2022-07-23T02:39:45;101984.00;;;18.31;61.50
46534;BME280;32260;52.008;4.752;2022-07-23T02:42:14;101992.00;;;18.32;61.00
46534;BME280;32260;52.008;4.752;2022-07-23T02:44:40;101992.00;;;18.32;61.01
46534;BME280;32260;52.008;4.752;2022-07-23T02:47:06;101991.09;;;18.32;61.12
46534;BME280;32260;52.008;4.752;2022-07-23T02:49:33;101996.47;;;18.32;61.25
46534;BME280;32260;52.008;4.752;2022-07-23T02:51:59;102006.34;;;18.31;61.17
46534;BME280;32260;52.008;4.752;2022-07-23T02:54:25;101995.66;;;18.30;61.06
46534;BME280;32260;52.008;4.752;2022-07-23T02:56:52;102004.56;;;18.30;60.87
46534;BME280;32260;52.008;4.752;2022-07-23T02:59:19;102009.94;;;18.30;61.21
46534;BME280;32260;52.008;4.752;2022-07-23T03:01:45;102016.19;;;18.31;61.35
46534;BME280;32260;52.008;4.752;2022-07-23T03:04:12;102014.38;;;18.31;61.40
46534;BME280;32260;52.008;4.752;2022-07-23T03:06:38;102016.13;;;18.32;61.27
46534;BME280;32260;52.008;4.752;2022-07-23T03:09:05;102009.94;;;18.30;60.86
46534;BME280;32260;52.008;4.752;2022-07-23T03:11:31;102008.88;;;18.34;61.50
46534;BME280;32260;52.008;4.752;2022-07-23T03:13:57;102008.75;;;18.39;61.52
46534;BME280;32260;52.008;4.752;2022-07-23T03:16:23;102001.41;;;18.44;61.59
46534;BME280;32260;52.008;4.752;2022-07-23T03:18:49;101998.69;;;18.46;61.27
46534;BME280;32260;52.008;4.752;2022-07-23T03:21:15;102000.47;;;18.45;61.31
46534;BME280;32260;52.008;4.752;2022-07-23T03:23:42;102003.09;;;18.47;61.63
46534;BME280;32260;52.008;4.752;2022-07-23T03:26:08;101996.03;;;18.44;61.89
46534;BME280;32260;52.008;4.752;2022-07-23T03:28:34;102002.31;;;18.45;61.42
46534;BME280;32260;52.008;4.752;2022-07-23T03:31:00;102006.91;;;18.41;61.39
46534;BME280;32260;52.008;4.752;2022-07-23T03:33:26;101999.00;;;18.36;61.60
46534;BME280;32260;52.008;4.752;2022-07-23T03:35:52;102011.69;;;18.31;61.71
46534;BME280;32260;52.008;4.752;2022-07-23T03:38:18;101995.81;;;18.25;61.40
46534;BME280;32260;52.008;4.752;2022-07-23T03:40:44;102000.50;;;18.18;61.27
46534;BME280;32260;52.008;4.752;2022-07-23T03:43:10;102001.59;;;18.13;61.29
46534;BME280;32260;52.008;4.752;2022-07-23T03:45:36;102001.78;;;18.06;61.51
46534;BME280;32260;52.008;4.752;2022-07-23T03:48:02;101999.34;;;17.99;61.45
46534;BME280;32260;52.008;4.752;2022-07-23T03:50:28;102005.75;;;17.93;61.71
46534;BME280;32260;52.008;4.752;2022-07-23T03:52:54;101998.66;;;17.92;61.84
46534;BME280;32260;52.008;4.752;2022-07-23T03:55:21;102005.81;;;17.91;61.97
46534;BME280;32260;52.008;4.752;2022-07-23T03:57:47;102004.88;;;17.92;61.73
46534;BME280;32260;52.008;4.752;2022-07-23T04:00:13;102004.03;;;17.92;61.78
46534;BME280;32260;52.008;4.752;2022-07-23T04:02:40;102007.63;;;17.91;61.61
46534;BME280;32260;52.008;4.752;2022-07-23T04:05:06;102008.53;;;17.90;61.57
46534;BME280;32260;52.008;4.752;2022-07-23T04:07:33;102018.38;;;17.89;61.89
46534;BME280;32260;52.008;4.752;2022-07-23T04:09:59;102015.69;;;17.89;61.65
46534;BME280;32260;52.008;4.752;2022-07-23T04:12:25;102017.50;;;17.89;61.85
46534;BME280;32260;52.008;4.752;2022-07-23T04:14:54;102015.69;;;17.89;61.84
46534;BME280;32260;52.008;4.752;2022-07-23T04:17:20;102024.56;;;17.91;61.84
46534;BME280;32260;52.008;4.752;2022-07-23T04:19:46;102020.13;;;17.92;61.94
46534;BME280;32260;52.008;4.752;2022-07-23T04:22:12;102020.94;;;17.94;61.57
46534;BME280;32260;52.008;4.752;2022-07-23T04:24:39;102020.94;;;17.94;62.02
46534;BME280;32260;52.008;4.752;2022-07-23T04:27:06;102022.72;;;17.95;61.72
46534;BME280;32260;52.008;4.752;2022-07-23T04:29:32;102031.63;;;17.95;61.78
46534;BME280;32260;52.008;4.752;2022-07-23T04:31:58;102020.81;;;17.99;61.98
46534;BME280;32260;52.008;4.752;2022-07-23T04:34:24;102023.34;;;18.03;62.02
46534;BME280;32260;52.008;4.752;2022-07-23T04:36:53;102029.38;;;18.10;61.84
46534;BME280;32260;52.008;4.752;2022-07-23T04:39:19;102028.53;;;18.09;61.67
46534;BME280;32260;52.008;4.752;2022-07-23T04:41:46;102029.38;;;18.10;61.86
46534;BME280;32260;52.008;4.752;2022-07-23T04:44:12;102027.53;;;18.12;62.02
46534;BME280;32260;52.008;4.752;2022-07-23T04:46:38;102031.81;;;18.18;61.90
46534;BME280;32260;52.008;4.752;2022-07-23T04:49:04;102033.47;;;18.22;61.75
46534;BME280;32260;52.008;4.752;2022-07-23T04:51:31;102038.66;;;18.26;61.51
46534;BME280;32260;52.008;4.752;2022-07-23T04:53:57;102036.75;;;18.30;61.95
46534;BME280;32260;52.008;4.752;2022-07-23T04:56:23;102034.91;;;18.32;61.82
46534;BME280;32260;52.008;4.752;2022-07-23T04:58:49;102040.78;;;18.43;61.94
46534;BME280;32260;52.008;4.752;2022-07-23T05:01:15;102032.53;;;18.50;61.96
46534;BME280;32260;52.008;4.752;2022-07-23T05:03:42;102033.09;;;18.59;61.71
46534;BME280;32260;52.008;4.752;2022-07-23T05:06:08;102031.06;;;18.66;61.54
46534;BME280;32260;52.008;4.752;2022-07-23T05:08:34;102033.53;;;18.72;61.46
46534;BME280;32260;52.008;4.752;2022-07-23T05:11:00;102040.53;;;18.76;61.56
46534;BME280;32260;52.008;4.752;2022-07-23T05:13:29;102036.84;;;18.81;61.46
46534;BME280;32260;52.008;4.752;2022-07-23T05:15:55;102036.84;;;18.81;61.30
46534;BME280;32260;52.008;4.752;2022-07-23T05:18:21;102038.59;;;18.82;61.00
46534;BME280;32260;52.008;4.752;2022-07-23T05:20:47;102040.22;;;18.86;60.82
46534;BME280;32260;52.008;4.752;2022-07-23T05:23:13;102045.47;;;18.89;60.59
46534;BME280;32260;52.008;4.752;2022-07-23T05:25:40;102041.84;;;18.91;60.66
46534;BME280;32260;52.008;4.752;2022-07-23T05:28:06;102039.97;;;18.94;60.66
46534;BME280;32260;52.008;4.752;2022-07-23T05:30:32;102048.81;;;18.97;60.78
46534;BME280;32260;52.008;4.752;2022-07-23T05:32:58;102046.00;;;19.00;60.63
46534;BME280;32260;52.008;4.752;2022-07-23T05:35:25;102048.59;;;19.03;60.88
46534;BME280;32260;52.008;4.752;2022-07-23T05:37:51;102029.66;;;19.06;60.68
46534;BME280;32260;52.008;4.752;2022-07-23T05:40:18;102034.88;;;19.11;60.74
46534;BME280;32260;52.008;4.752;2022-07-23T05:42:44;102032.00;;;19.16;60.55
46534;BME280;32260;52.008;4.752;2022-07-23T05:45:10;102033.66;;;19.20;60.67
46534;BME280;32260;52.008;4.752;2022-07-23T05:47:46;102035.16;;;19.27;60.74
46534;BME280;32260;52.008;4.752;2022-07-23T05:50:13;102044.16;;;19.26;60.66
46534;BME280;32260;52.008;4.752;2022-07-23T05:52:40;102047.69;;;19.28;60.75
46534;BME280;32260;52.008;4.752;2022-07-23T05:55:08;102044.88;;;19.31;60.37
46534;BME280;32260;52.008;4.752;2022-07-23T05:57:35;102051.06;;;19.33;60.44
46534;BME280;32260;52.008;4.752;2022-07-23T06:00:02;102042.88;;;19.36;60.14
46534;BME280;32260;52.008;4.752;2022-07-23T06:02:28;102040.09;;;19.39;60.09
46534;BME280;32260;52.008;4.752;2022-07-23T06:04:55;102046.16;;;19.45;60.02
46534;BME280;32260;52.008;4.752;2022-07-23T06:07:21;102050.53;;;19.47;59.95
46534;BME280;32260;52.008;4.752;2022-07-23T06:09:47;102052.16;;;19.51;59.69
46534;BME280;32260;52.008;4.752;2022-07-23T06:12:15;102059.25;;;19.54;59.51
46534;BME280;32260;52.008;4.752;2022-07-23T06:14:41;102055.50;;;19.58;59.48
46534;BME280;32260;52.008;4.752;2022-07-23T06:17:08;102057.28;;;19.59;58.91
46534;BME280;32260;52.008;4.752;2022-07-23T06:19:34;102060.88;;;19.58;58.70
46534;BME280;32260;52.008;4.752;2022-07-23T06:22:01;102053.66;;;19.60;58.51
46534;BME280;32260;52.008;4.752;2022-07-23T06:24:27;102063.44;;;19.61;57.99
46534;BME280;32260;52.008;4.752;2022-07-23T06:26:53;102062.34;;;19.67;58.19
46534;BME280;32260;52.008;4.752;2022-07-23T06:29:19;102062.03;;;19.75;58.29
46534;BME280;32260;52.008;4.752;2022-07-23T06:31:45;102066.31;;;19.80;58.39
46534;BME280;32260;52.008;4.752;2022-07-23T06:34:11;102066.97;;;19.87;58.14
46534;BME280;32260;52.008;4.752;2022-07-23T06:36:37;102050.72;;;19.90;58.06
46534;BME280;32260;52.008;4.752;2022-07-23T06:39:03;102049.66;;;19.94;57.74
46534;BME280;32260;52.008;4.752;2022-07-23T06:41:29;102051.34;;;19.97;57.35
46534;BME280;32260;52.008;4.752;2022-07-23T06:43:55;102053.94;;;19.98;57.39
46534;BME280;32260;52.008;4.752;2022-07-23T06:46:21;102059.16;;;20.03;57.50
46534;BME280;32260;52.008;4.752;2022-07-23T06:48:47;102059.91;;;20.07;57.44
46534;BME280;32260;52.008;4.752;2022-07-23T06:51:13;102064.22;;;20.11;57.49
46534;BME280;32260;52.008;4.752;2022-07-23T06:53:40;102058.72;;;20.14;57.49
46534;BME280;32260;52.008;4.752;2022-07-23T06:56:06;102064.78;;;20.19;57.47
46534;BME280;32260;52.008;4.752;2022-07-23T06:58:33;102063.91;;;20.18;57.05
46534;BME280;32260;52.008;4.752;2022-07-23T07:00:59;102057.34;;;20.26;57.28
46534;BME280;32260;52.008;4.752;2022-07-23T07:03:25;102067.09;;;20.28;56.41
46534;BME280;32260;52.008;4.752;2022-07-23T07:05:51;102057.00;;;20.33;56.28
46534;BME280;32260;52.008;4.752;2022-07-23T07:08:18;102065.56;;;20.43;56.64
46534;BME280;32260;52.008;4.752;2022-07-23T07:10:44;102062.69;;;20.48;55.81
46534;BME280;32260;52.008;4.752;2022-07-23T07:13:10;102063.28;;;20.55;55.96
46534;BME280;32260;52.008;4.752;2022-07-23T07:15:36;102073.81;;;20.61;56.27
46534;BME280;32260;52.008;4.752;2022-07-23T07:18:02;102076.31;;;20.65;56.15
46534;BME280;32260;52.008;4.752;2022-07-23T07:20:28;102080.75;;;20.66;53.76
46534;BME280;32260;52.008;4.752;2022-07-23T07:22:54;102086.78;;;20.73;54.75
46534;BME280;32260;52.008;4.752;2022-07-23T07:25:20;102079.44;;;20.77;55.61
46534;BME280;32260;52.008;4.752;2022-07-23T07:27:46;102069.59;;;20.76;54.95
46534;BME280;32260;52.008;4.752;2022-07-23T07:30:12;102072.19;;;20.79;55.24
46534;BME280;32260;52.008;4.752;2022-07-23T07:32:39;102076.81;;;20.75;54.03
46534;BME280;32260;52.008;4.752;2022-07-23T07:35:07;102081.06;;;20.81;54.64
46534;BME280;32260;52.008;4.752;2022-07-23T07:37:33;102081.53;;;20.91;55.34
46534;BME280;32260;52.008;4.752;2022-07-23T07:39:59;102079.50;;;20.96;54.39
46534;BME280;32260;52.008;4.752;2022-07-23T07:42:25;102083.59;;;21.05;53.63
46534;BME280;32260;52.008;4.752;2022-07-23T07:44:52;102088.44;;;21.17;54.07
46534;BME280;32260;52.008;4.752;2022-07-23T07:47:18;102080.91;;;21.25;54.17
46534;BME280;32260;52.008;4.752;2022-07-23T07:49:46;102083.97;;;21.37;54.52
46534;BME280;32260;52.008;4.752;2022-07-23T07:52:12;102084.59;;;21.43;54.16
46534;BME280;32260;52.008;4.752;2022-07-23T07:54:38;102081.66;;;21.48;53.65
46534;BME280;32260;52.008;4.752;2022-07-23T07:57:05;102089.63;;;21.51;53.75
46534;BME280;32260;52.008;4.752;2022-07-23T07:59:31;102091.31;;;21.54;53.21
46534;BME280;32260;52.008;4.752;2022-07-23T08:01:57;102096.56;;;21.57;53.37
46534;BME280;32260;52.008;4.752;2022-07-23T08:04:23;102088.28;;;21.61;52.54
46534;BME280;32260;52.008;4.752;2022-07-23T08:06:49;102097.03;;;21.67;52.71
46534;BME280;32260;52.008;4.752;2022-07-23T08:09:15;102097.84;;;21.69;52.98
46534;BME280;32260;52.008;4.752;2022-07-23T08:11:41;102104.16;;;21.68;53.09
46534;BME280;32260;52.008;4.752;2022-07-23T08:14:07;102102.00;;;21.76;53.26
46534;BME280;32260;52.008;4.752;2022-07-23T08:16:33;102097.91;;;21.86;53.24
46534;BME280;32260;52.008;4.752;2022-07-23T08:18:59;102101.25;;;21.91;51.48
46534;BME280;32260;52.008;4.752;2022-07-23T08:21:25;102099.06;;;22.00;52.48
46534;BME280;32260;52.008;4.752;2022-07-23T08:23:51;102105.25;;;22.02;52.64
46534;BME280;32260;52.008;4.752;2022-07-23T08:26:17;102105.91;;;22.07;52.97
46534;BME280;32260;52.008;4.752;2022-07-23T08:28:43;102104.81;;;22.11;50.95
46534;BME280;32260;52.008;4.752;2022-07-23T08:31:09;102102.59;;;22.19;50.92
46534;BME280;32260;52.008;4.752;2022-07-23T08:33:37;102102.56;;;22.21;51.74
46534;BME280;32260;52.008;4.752;2022-07-23T08:36:04;102106.91;;;22.23;50.81
46534;BME280;32260;52.008;4.752;2022-07-23T08:38:31;102108.34;;;22.30;51.76
46534;BME280;32260;52.008;4.752;2022-07-23T08:40:57;102101.94;;;22.33;50.60
46534;BME280;32260;52.008;4.752;2022-07-23T08:43:27;102107.41;;;22.32;51.01
46534;BME280;32260;52.008;4.752;2022-07-23T08:45:56;102106.03;;;22.42;50.66
46534;BME280;32260;52.008;4.752;2022-07-23T08:48:25;102107.22;;;22.54;50.88
46534;BME280;32260;52.008;4.752;2022-07-23T08:50:53;102107.88;;;22.59;50.69
46534;BME280;32260;52.008;4.752;2022-07-23T08:53:21;102113.44;;;22.73;51.02
46534;BME280;32260;52.008;4.752;2022-07-23T08:55:50;102113.91;;;22.82;50.00
46534;BME280;32260;52.008;4.752;2022-07-23T08:58:16;102109.41;;;22.82;49.12
46534;BME280;32260;52.008;4.752;2022-07-23T09:00:44;102108.75;;;22.94;50.62
46534;BME280;32260;52.008;4.752;2022-07-23T09:03:20;102106.91;;;23.13;50.29
46534;BME280;32260;52.008;4.752;2022-07-23T09:05:47;102106.84;;;23.14;48.82
46534;BME280;32260;52.008;4.752;2022-07-23T09:08:15;102103.53;;;23.26;50.43
46534;BME280;32260;52.008;4.752;2022-07-23T09:10:59;102112.38;;;23.46;48.87
46534;BME280;32260;52.008;4.752;2022-07-23T09:16:11;102119.91;;;23.57;49.42
46534;BME280;32260;52.008;4.752;2022-07-23T09:34:32;102107.81;;;24.12;46.63
46534;BME280;32260;52.008;4.752;2022-07-23T09:37:13;102103.47;;;24.26;46.11
46534;BME280;32260;52.008;4.752;2022-07-23T09:39:40;102111.06;;;24.19;43.22
46534;BME280;32260;52.008;4.752;2022-07-23T09:42:23;102111.81;;;24.37;46.58
46534;BME280;32260;52.008;4.752;2022-07-23T09:44:53;102113.56;;;24.38;45.40
46534;BME280;32260;52.008;4.752;2022-07-23T09:47:21;102111.31;;;24.46;46.81
46534;BME280;32260;52.008;4.752;2022-07-23T09:50:08;102114.25;;;24.58;43.82
46534;BME280;32260;52.008;4.752;2022-07-23T09:52:44;102115.09;;;24.58;44.39
46534;BME280;32260;52.008;4.752;2022-07-23T09:55:11;102117.56;;;24.63;44.90
46534;BME280;32260;52.008;4.752;2022-07-23T09:57:39;102111.78;;;24.69;44.19
46534;BME280;32260;52.008;4.752;2022-07-23T10:00:07;102112.66;;;24.69;44.59
46534;BME280;32260;52.008;4.752;2022-07-23T10:02:36;102119.56;;;24.75;44.38
46534;BME280;32260;52.008;4.752;2022-07-23T10:05:04;102111.44;;;24.75;44.95
46534;BME280;32260;52.008;4.752;2022-07-23T10:07:33;102121.53;;;24.87;45.49
46534;BME280;32260;52.008;4.752;2022-07-23T10:10:02;102117.38;;;24.96;44.68
46534;BME280;32260;52.008;4.752;2022-07-23T10:12:29;102110.53;;;25.05;45.69
46534;BME280;32260;52.008;4.752;2022-07-23T10:15:15;102112.66;;;25.14;45.41
46534;BME280;32260;52.008;4.752;2022-07-23T10:17:41;102116.63;;;25.23;44.30
46534;BME280;32260;52.008;4.752;2022-07-23T10:20:07;102115.13;;;25.33;44.75
46534;BME280;32260;52.008;4.752;2022-07-23T10:22:37;102109.72;;;25.48;43.73
46534;BME280;32260;52.008;4.752;2022-07-23T10:25:32;102117.25;;;25.72;42.37
46534;BME280;32260;52.008;4.752;2022-07-23T10:29:23;102108.03;;;25.89;43.43
46534;BME280;32260;52.008;4.752;2022-07-23T10:31:20;102107.22;;;26.01;44.19
46534;BME280;32260;52.008;4.752;2022-07-23T10:36:44;102106.53;;;26.39;43.38
46534;BME280;32260;52.008;4.752;2022-07-23T10:39:24;102099.59;;;26.48;41.49
46534;BME280;32260;52.008;4.752;2022-07-23T10:41:51;102098.44;;;26.52;43.01
46534;BME280;32260;52.008;4.752;2022-07-23T10:44:20;102098.22;;;26.55;39.34
46534;BME280;32260;52.008;4.752;2022-07-23T10:49:32;102104.69;;;26.67;39.82
46534;BME280;32260;52.008;4.752;2022-07-23T10:52:20;102101.69;;;26.85;41.46
46534;BME280;32260;52.008;4.752;2022-07-23T10:57:28;102094.34;;;26.72;42.22
46534;BME280;32260;52.008;4.752;2022-07-23T11:02:55;102086.66;;;26.79;42.96
46534;BME280;32260;52.008;4.752;2022-07-23T11:05:24;102091.47;;;26.88;42.17
46534;BME280;32260;52.008;4.752;2022-07-23T11:24:08;102089.09;;;27.09;41.08
46534;BME280;32260;52.008;4.752;2022-07-23T11:32:24;102090.81;;;27.36;38.62
46534;BME280;32260;52.008;4.752;2022-07-23T11:34:52;102084.97;;;27.42;39.76
46534;BME280;32260;52.008;4.752;2022-07-23T11:37:29;102082.13;;;27.57;41.06
46534;BME280;32260;52.008;4.752;2022-07-23T11:39:57;102085.16;;;27.52;39.12
46534;BME280;32260;52.008;4.752;2022-07-23T11:42:24;102081.22;;;27.56;40.56
46534;BME280;32260;52.008;4.752;2022-07-23T11:44:51;102076.97;;;27.65;40.23
46534;BME280;32260;52.008;4.752;2022-07-23T11:47:22;102080.78;;;27.75;39.90
46534;BME280;32260;52.008;4.752;2022-07-23T11:49:53;102074.63;;;27.85;39.50
46534;BME280;32260;52.008;4.752;2022-07-23T11:52:20;102071.31;;;27.92;39.72
46534;BME280;32260;52.008;4.752;2022-07-23T11:54:50;102066.72;;;28.06;39.52
46534;BME280;32260;52.008;4.752;2022-07-23T11:57:17;102063.88;;;28.07;38.79
46534;BME280;32260;52.008;4.752;2022-07-23T11:59:47;102065.16;;;28.15;39.56
46534;BME280;32260;52.008;4.752;2022-07-23T12:02:15;102063.22;;;28.17;39.22
46534;BME280;32260;52.008;4.752;2022-07-23T12:04:46;102057.00;;;28.15;38.77
46534;BME280;32260;52.008;4.752;2022-07-23T12:07:29;102059.09;;;28.35;39.07
46534;BME280;32260;52.008;4.752;2022-07-23T12:09:57;102052.41;;;28.39;38.88
46534;BME280;32260;52.008;4.752;2022-07-23T12:12:24;102044.56;;;28.35;39.32
46534;BME280;32260;52.008;4.752;2022-07-23T12:17:31;102054.97;;;28.65;37.35
46534;BME280;32260;52.008;4.752;2022-07-23T12:19:59;102054.13;;;28.76;38.23
46534;BME280;32260;52.008;4.752;2022-07-23T12:22:33;102050.56;;;28.87;36.63
46534;BME280;32260;52.008;4.752;2022-07-23T12:25:03;102056.78;;;29.00;37.48
46534;BME280;32260;52.008;4.752;2022-07-23T12:27:30;102061.75;;;29.07;37.17
46534;BME280;32260;52.008;4.752;2022-07-23T12:29:56;102054.56;;;29.17;37.90
46534;BME280;32260;52.008;4.752;2022-07-23T12:32:26;102054.38;;;29.31;37.46
46534;BME280;32260;52.008;4.752;2022-07-23T12:35:09;102051.28;;;29.36;36.38
46534;BME280;32260;52.008;4.752;2022-07-23T12:37:38;102050.16;;;29.39;36.05
46534;BME280;32260;52.008;4.752;2022-07-23T12:48:24;102052.44;;;29.77;33.53
46534;BME280;32260;52.008;4.752;2022-07-23T12:50:56;102042.84;;;29.94;35.22
46534;BME280;32260;52.008;4.752;2022-07-23T12:56:05;102039.09;;;30.07;34.43
46534;BME280;32260;52.008;4.752;2022-07-23T13:01:32;102037.63;;;30.02;34.40
46534;BME280;32260;52.008;4.752;2022-07-23T13:04:09;102041.69;;;30.08;33.87
46534;BME280;32260;52.008;4.752;2022-07-23T13:09:19;102037.19;;;30.18;30.90
46534;BME280;32260;52.008;4.752;2022-07-23T13:11:47;102041.63;;;30.31;31.63
46534;BME280;32260;52.008;4.752;2022-07-23T13:14:15;102034.72;;;30.37;32.63
46534;BME280;32260;52.008;4.752;2022-07-23T13:16:42;102039.03;;;30.50;33.02
46534;BME280;32260;52.008;4.752;2022-07-23T13:19:09;102032.66;;;30.61;31.80
46534;BME280;32260;52.008;4.752;2022-07-23T13:21:35;102032.25;;;30.87;32.00
46534;BME280;32260;52.008;4.752;2022-07-23T13:24:01;102031.34;;;31.08;31.72
46534;BME280;32260;52.008;4.752;2022-07-23T13:26:27;102029.25;;;31.21;30.12
46534;BME280;32260;52.008;4.752;2022-07-23T13:28:54;102014.88;;;31.29;31.21
46534;BME280;32260;52.008;4.752;2022-07-23T13:31:20;102020.63;;;31.26;29.74
46534;BME280;32260;52.008;4.752;2022-07-23T13:33:47;102007.97;;;31.35;31.71
46534;BME280;32260;52.008;4.752;2022-07-23T13:36:13;102014.34;;;31.45;30.11
46534;BME280;32260;52.008;4.752;2022-07-23T13:38:39;102011.03;;;31.51;29.54
46534;BME280;32260;52.008;4.752;2022-07-23T13:41:06;102012.91;;;31.41;30.36
46534;BME280;32260;52.008;4.752;2022-07-23T13:43:32;102012.00;;;31.30;29.05
46534;BME280;32260;52.008;4.752;2022-07-23T13:45:59;102026.09;;;31.26;30.31
46534;BME280;32260;52.008;4.752;2022-07-23T13:48:25;102014.03;;;31.38;30.16
46534;BME280;32260;52.008;4.752;2022-07-23T13:50:52;102018.06;;;31.44;31.37
46534;BME280;32260;52.008;4.752;2022-07-23T13:53:20;102008.66;;;31.68;29.85
46534;BME280;32260;52.008;4.752;2022-07-23T13:55:49;102013.16;;;31.88;29.53
46534;BME280;32260;52.008;4.752;2022-07-23T13:58:16;102007.84;;;31.97;31.12
46534;BME280;32260;52.008;4.752;2022-07-23T14:00:46;102005.97;;;32.07;30.50
46534;BME280;32260;52.008;4.752;2022-07-23T14:03:13;101996.56;;;32.09;28.18